createdAt,value
2023-10-04T00:04:11.664Z,13.17
2023-10-04T00:09:11.400Z,13.13
2023-10-04T00:14:10.530Z,13.21
2023-10-04T00:19:10.736Z,13.05
2023-10-04T00:24:12.850Z,13.18
2023-10-04T00:29:12.041Z,13.23
2023-10-04T00:34:11.066Z,13.11
2023-10-04T00:39:09.914Z,13.09
2023-10-04T00:44:12.215Z,13.05
2023-10-04T00:49:11.752Z,13.04
2023-10-04T00:54:12.001Z,13.19
2023-10-04T00:59:11.233Z,12.96
2023-10-04T01:04:12.047Z,13.07
2023-10-04T01:09:12.023Z,12.98
2023-10-04T01:14:19.938Z,13.10
2023-10-04T01:19:18.934Z,13.12
2023-10-04T01:24:18.638Z,13.01
2023-10-04T01:29:19.628Z,13.18
2023-10-04T01:34:18.719Z,13.04
2023-10-04T01:39:21.221Z,12.98
2023-10-04T01:44:20.440Z,12.90
2023-10-04T01:49:19.548Z,12.88
2023-10-04T01:54:18.518Z,13.06
2023-10-04T01:59:18.446Z,13.08
2023-10-04T02:04:17.230Z,12.94
2023-10-04T02:09:17.926Z,13.17
2023-10-04T02:14:16.893Z,12.99
2023-10-04T02:19:15.889Z,12.93
2023-10-04T02:24:15.264Z,12.86
2023-10-04T02:29:14.232Z,13.03
2023-10-04T02:34:13.755Z,12.89
2023-10-04T02:39:13.053Z,13.02
2023-10-04T02:44:12.163Z,13.07
2023-10-04T02:49:11.926Z,12.98
2023-10-04T02:54:11.403Z,13.23
2023-10-04T02:59:11.828Z,13.03
2023-10-04T03:04:12.308Z,12.86
2023-10-04T03:09:11.434Z,12.91
2023-10-04T03:14:13.307Z,12.96
2023-10-04T03:19:12.426Z,12.98
2023-10-04T03:24:12.230Z,12.81
2023-10-04T03:29:13.190Z,12.75
2023-10-04T03:34:12.160Z,12.56
2023-10-04T03:39:11.772Z,12.71
2023-10-04T03:44:14.259Z,12.58
2023-10-04T03:49:14.073Z,12.71
2023-10-04T03:54:14.496Z,12.82
2023-10-04T03:59:17.971Z,12.74
2023-10-04T04:04:19.289Z,12.65
2023-10-04T04:09:18.986Z,12.43
2023-10-04T04:14:21.420Z,12.77
2023-10-04T04:19:24.182Z,12.63
2023-10-04T04:24:23.816Z,12.75
2023-10-04T04:29:22.708Z,14.93
2023-10-04T04:34:22.314Z,15.24
2023-10-04T04:39:22.674Z,15.47
2023-10-04T04:44:22.159Z,15.39
2023-10-04T04:49:22.329Z,15.40
2023-10-04T04:54:21.364Z,15.60
2023-10-04T04:59:23.080Z,15.44
2023-10-04T05:04:24.115Z,15.63
2023-10-04T05:09:23.298Z,15.70
2023-10-04T05:14:22.153Z,14.54
2023-10-04T05:19:21.021Z,13.69
2023-10-04T05:24:19.942Z,13.40
2023-10-04T05:29:18.899Z,12.95
2023-10-04T05:34:17.914Z,13.03
2023-10-04T05:39:16.729Z,13.20
2023-10-04T05:44:16.126Z,13.18
2023-10-04T05:49:14.970Z,13.32
2023-10-04T05:54:13.890Z,13.30
2023-10-04T05:59:14.163Z,13.09
2023-10-04T06:04:13.114Z,13.32
2023-10-04T06:09:12.089Z,13.33
2023-10-04T06:14:11.670Z,13.22
2023-10-04T06:19:23.564Z,13.14
2023-10-04T06:24:30.134Z,13.11
2023-10-04T06:29:28.986Z,13.27
2023-10-04T06:34:28.662Z,13.38
2023-10-04T06:39:28.422Z,13.51
2023-10-04T06:44:28.740Z,13.58
2023-10-04T06:49:27.714Z,13.80
2023-10-04T06:54:26.712Z,13.74
2023-10-04T06:59:26.002Z,13.87
2023-10-04T07:04:25.177Z,14.10
2023-10-04T07:09:24.189Z,14.09
2023-10-04T07:14:22.987Z,14.18
2023-10-04T07:19:21.859Z,14.28
2023-10-04T07:24:20.686Z,14.28
2023-10-04T07:29:19.657Z,14.29
2023-10-04T07:34:18.701Z,14.42
2023-10-04T07:39:17.639Z,14.48
2023-10-04T07:44:17.612Z,14.32
2023-10-04T07:49:16.956Z,14.36
2023-10-04T07:54:16.103Z,14.48
2023-10-04T07:59:15.116Z,14.46
2023-10-04T08:04:14.063Z,14.68
2023-10-04T08:09:16.336Z,14.76
2023-10-04T08:14:15.111Z,15.06
2023-10-04T08:19:14.580Z,15.22
2023-10-04T08:24:13.738Z,15.27
2023-10-04T08:29:12.621Z,15.17
2023-10-04T08:34:11.438Z,15.32
2023-10-04T08:39:12.125Z,15.49
2023-10-04T08:44:13.398Z,15.23
2023-10-04T08:49:13.476Z,15.28
2023-10-04T08:54:15.264Z,15.29
2023-10-04T08:59:14.249Z,15.46
2023-10-04T09:04:15.132Z,15.86
2023-10-04T09:09:16.564Z,16.24
2023-10-04T09:14:16.419Z,16.26
2023-10-04T09:19:19.676Z,16.18
2023-10-04T09:24:19.221Z,16.02
2023-10-04T09:29:38.423Z,16.01
2023-10-04T09:34:37.255Z,16.36
2023-10-04T09:39:38.406Z,16.47
2023-10-04T09:44:38.189Z,16.56
2023-10-04T09:49:39.052Z,16.50
2023-10-04T09:54:38.022Z,16.77
2023-10-04T09:59:38.957Z,16.93
2023-10-04T10:04:45.593Z,16.65
2023-10-04T10:10:01.141Z,16.70
2023-10-04T10:15:05.604Z,16.96
2023-10-04T10:20:07.036Z,17.11
2023-10-04T10:25:20.538Z,17.30
2023-10-04T10:30:20.052Z,16.87
2023-10-04T10:35:47.581Z,16.88
2023-10-04T10:40:47.506Z,17.03
2023-10-04T10:45:47.665Z,17.10
2023-10-04T10:50:47.267Z,16.89
2023-10-04T10:55:46.279Z,16.90
2023-10-04T11:00:45.270Z,16.97
2023-10-04T11:05:44.132Z,17.11
2023-10-04T11:10:42.963Z,17.13
2023-10-04T11:15:43.093Z,16.97
2023-10-04T11:20:42.604Z,16.91
2023-10-04T11:25:42.133Z,17.15
2023-10-04T11:30:41.151Z,17.07
2023-10-04T11:35:42.164Z,16.89
2023-10-04T11:40:41.240Z,16.73
2023-10-04T11:45:40.118Z,16.73
2023-10-04T11:50:52.357Z,17.19
2023-10-04T11:56:00.927Z,17.20
2023-10-04T12:01:09.430Z,16.93
2023-10-04T12:06:08.429Z,16.75
2023-10-04T12:11:15.173Z,16.89
2023-10-04T12:16:15.403Z,16.76
2023-10-04T12:21:14.491Z,17.08
2023-10-04T12:26:16.873Z,17.13
2023-10-04T12:31:16.407Z,17.03
2023-10-04T12:36:16.341Z,17.05
2023-10-04T12:41:16.430Z,16.99
2023-10-04T12:46:15.293Z,17.03
2023-10-04T12:51:14.208Z,17.31
2023-10-04T12:56:13.236Z,17.77
2023-10-04T13:01:12.120Z,17.78
2023-10-04T13:06:15.615Z,18.04
2023-10-04T13:11:15.476Z,17.76
2023-10-04T13:16:14.588Z,17.40
2023-10-04T13:21:13.584Z,17.44
2023-10-04T13:26:12.541Z,17.18
2023-10-04T13:31:17.226Z,17.25
2023-10-04T13:36:16.187Z,17.22
2023-10-04T13:41:15.228Z,17.53
2023-10-04T13:46:14.414Z,17.52
2023-10-04T13:51:23.147Z,17.57
2023-10-04T13:56:23.471Z,17.56
2023-10-04T14:01:23.799Z,17.44
2023-10-04T14:06:22.908Z,17.42
2023-10-04T14:11:21.885Z,17.61
2023-10-04T14:16:21.007Z,17.53
2023-10-04T14:21:20.234Z,17.37
2023-10-04T14:26:22.091Z,17.50
2023-10-04T14:31:23.883Z,17.34
2023-10-04T14:36:23.454Z,17.29
2023-10-04T14:41:22.451Z,17.38
2023-10-04T14:46:21.504Z,17.25
2023-10-04T14:51:21.575Z,17.11
2023-10-04T14:56:20.434Z,17.18
2023-10-04T15:01:19.705Z,17.21
2023-10-04T15:06:18.523Z,17.15
2023-10-04T15:11:29.157Z,17.14
2023-10-04T15:16:29.693Z,17.16
2023-10-04T15:21:30.287Z,16.96
2023-10-04T15:26:30.339Z,16.98
2023-10-04T15:31:29.251Z,16.91
2023-10-04T15:36:28.357Z,17.29
2023-10-04T15:41:27.237Z,17.27
2023-10-04T15:46:26.214Z,17.19
2023-10-04T15:51:25.157Z,17.15
2023-10-04T15:56:23.988Z,17.04
2023-10-04T16:01:22.925Z,16.81
2023-10-04T16:06:23.594Z,16.49
2023-10-04T16:11:25.484Z,16.55
2023-10-04T16:16:25.150Z,16.41
2023-10-04T16:21:24.406Z,16.39
2023-10-04T16:26:24.005Z,16.20
2023-10-04T16:31:23.798Z,16.26
2023-10-04T16:36:22.865Z,16.09
2023-10-04T16:41:21.770Z,16.03
2023-10-04T16:46:21.254Z,15.90
2023-10-04T16:51:20.252Z,16.00
2023-10-04T16:56:19.160Z,15.68
2023-10-04T17:01:18.174Z,15.77
2023-10-04T17:06:18.111Z,15.57
2023-10-04T17:11:17.122Z,15.45
2023-10-04T17:16:16.405Z,15.51
2023-10-04T17:21:17.086Z,15.59
2023-10-04T17:26:16.082Z,15.34
2023-10-04T17:31:15.080Z,15.25
2023-10-04T17:36:14.156Z,15.37
2023-10-04T17:41:16.752Z,15.34
2023-10-04T17:46:15.731Z,14.99
2023-10-04T17:51:14.654Z,14.58
2023-10-04T17:56:13.516Z,14.57
2023-10-04T18:01:15.662Z,14.26
2023-10-04T18:06:15.960Z,14.40
2023-10-04T18:11:14.772Z,14.16
2023-10-04T18:16:13.628Z,14.35
2023-10-04T18:21:13.110Z,14.37
2023-10-04T18:26:12.098Z,14.05
2023-10-04T18:31:11.312Z,14.29
2023-10-04T18:36:17.553Z,14.05
2023-10-04T18:41:17.796Z,14.12
2023-10-04T18:46:16.829Z,14.37
2023-10-04T18:51:17.196Z,14.24
2023-10-04T18:56:16.274Z,14.20
2023-10-04T19:01:17.621Z,13.80
2023-10-04T19:06:16.576Z,13.82
2023-10-04T19:11:22.215Z,13.63
2023-10-04T19:16:25.900Z,13.99
2023-10-04T19:21:25.427Z,14.17
2023-10-04T19:26:24.248Z,14.14
2023-10-04T19:31:23.226Z,13.77
2023-10-04T19:36:23.720Z,13.81
2023-10-04T19:41:22.781Z,13.72
2023-10-04T19:46:21.808Z,13.57
2023-10-04T19:51:20.751Z,13.23
2023-10-04T19:56:22.843Z,13.26
2023-10-04T20:01:23.066Z,12.93
2023-10-04T20:06:24.128Z,13.09
2023-10-04T20:11:23.288Z,12.85
2023-10-04T20:16:26.086Z,12.67
2023-10-04T20:21:25.293Z,12.49
2023-10-04T20:26:24.103Z,12.54
2023-10-04T20:31:25.931Z,12.50
2023-10-04T20:36:25.305Z,12.43
2023-10-04T20:41:24.207Z,12.46
2023-10-04T20:46:23.210Z,12.30
2023-10-04T20:51:22.859Z,12.32
2023-10-04T20:56:27.801Z,12.49
2023-10-04T21:01:27.759Z,12.54
2023-10-04T21:06:27.131Z,12.52
2023-10-04T21:11:28.225Z,12.89
2023-10-04T21:16:27.559Z,13.04
2023-10-04T21:21:26.488Z,12.95
2023-10-04T21:26:26.390Z,12.98
2023-10-04T21:31:25.464Z,13.00
2023-10-04T21:36:24.810Z,12.99
2023-10-04T21:41:24.031Z,13.05
2023-10-04T21:46:26.408Z,13.24
2023-10-04T21:51:57.580Z,13.20
2023-10-04T21:56:57.475Z,13.14
2023-10-04T22:01:57.648Z,13.09
2023-10-04T22:07:10.397Z,13.10
2023-10-04T22:12:18.025Z,12.95
2023-10-04T22:17:17.649Z,12.90
2023-10-04T22:22:16.941Z,12.91
2023-10-04T22:27:15.808Z,12.88
2023-10-04T22:32:14.658Z,12.83
2023-10-04T22:37:13.537Z,12.99
2023-10-04T22:42:13.255Z,12.80
2023-10-04T22:47:12.290Z,12.88
2023-10-04T22:52:11.395Z,12.96
2023-10-04T22:57:12.163Z,12.91
2023-10-04T23:02:12.414Z,12.98
2023-10-04T23:07:11.894Z,12.89
2023-10-04T23:12:11.963Z,12.66
2023-10-04T23:17:16.167Z,12.78
2023-10-04T23:22:17.365Z,12.67
2023-10-04T23:27:17.735Z,12.54
2023-10-04T23:32:16.777Z,12.55
2023-10-04T23:37:15.657Z,12.60
2023-10-04T23:42:14.991Z,12.77
2023-10-04T23:47:16.667Z,12.61
2023-10-04T23:52:19.257Z,12.64
2023-10-04T23:57:27.490Z,12.63
